الصفحة الرئيسية
METAR-TAF:

METAR-TAF

مطار :

Weno, مايكرونيزيا

دائرة عرض: 07-28N, خط طول: 151-51E, ارتفاع: 3 متر

مراقبة الطقس الحالي

تاريخ ووقت الإصدار 1ساعة و 18 دقيقة قبل الساعة 17:50UTC
ريح 7 عقدة من الشرق/الجنوب الشرقي
درجة الحرارة 28°درجة مئوية
الرطوبة 79%
ضغط 1009 hPa
الرؤية: 24.1 كم
غيوم قليلة على ارتفاع 1400 قدم
ملبد بالغيوم على ارتفاع 28000 قدم

METAR: PTKK 221750Z 11007KT 15SM FEW014 OVC280 28/24 A2979 RMK SLP089 60001 8/101 T02750240 10289 20269 57012

زمن: 05:08 (19:08 UTC)

توقعات

تاريخ ووقت الإصدار 1ساعة و 38 دقيقة قبل الساعة 17:30UTC
التوقعات صالحة من22 الساعة 18 UTC إلى 23 الساعة 18 UTC
ريح 10 عقدة من الشرق
الرؤية: 10 كم
غيوم متفرقة على ارتفاع 1400 قدم
غيوم مفككة على ارتفاع 12000 قدم
زخات في الجوار,

TAF: PTKK 221730Z 2218/2318 10010KT P6SM VCSH SCT014 BKN120

أرصاد الطقس والتوقعات من أكثر من 4000 مطار (تقارير الطقس للمطار METAR والتنبؤ بالطقس بالمطارTAF).

المحطات المتاحة هي النقط الصفراء والحمراء على الخريطة.

حرك المؤشر فوق النقطة لمعرفة اسم المحطة.

ثم انقر لمعرفة أرصاد وتوقعات الطقس.

لتغيير الخارطة: اضغط على الأزرار الخضراء مع رمز الصليب الأسود للتكبير. على الزر الأخضر مع شرطة للتصغير، أو على الأسهم الخضراء للخرائط المجاورة.


METAR-TAF: